sensor_id;sensor_type;location;lat;lon;timestamp;temperature;humidity
20759;DHT22;10539;53.686;9.158;2023-08-06T00:00:12;16.80;99.90
20759;DHT22;10539;53.686;9.158;2023-08-06T00:02:37;16.90;99.90
20759;DHT22;10539;53.686;9.158;2023-08-06T00:05:03;16.90;99.90
20759;DHT22;10539;53.686;9.158;2023-08-06T00:07:29;16.80;99.90
20759;DHT22;10539;53.686;9.158;2023-08-06T00:09:55;16.80;99.90
20759;DHT22;10539;53.686;9.158;2023-08-06T00:12:20;16.80;99.90
20759;DHT22;10539;53.686;9.158;2023-08-06T00:14:50;16.70;99.90
20759;DHT22;10539;53.686;9.158;2023-08-06T00:17:16;16.70;99.90
20759;DHT22;10539;53.686;9.158;2023-08-06T00:19:42;16.80;99.90
20759;DHT22;10539;53.686;9.158;2023-08-06T00:22:08;16.80;99.90
20759;DHT22;10539;53.686;9.158;2023-08-06T00:24:34;16.80;99.90
20759;DHT22;10539;53.686;9.158;2023-08-06T00:27:00;16.80;99.90
20759;DHT22;10539;53.686;9.158;2023-08-06T00:29:26;16.80;99.90
20759;DHT22;10539;53.686;9.158;2023-08-06T00:31:51;16.80;99.90
20759;DHT22;10539;53.686;9.158;2023-08-06T00:34:17;16.90;99.90
20759;DHT22;10539;53.686;9.158;2023-08-06T00:36:43;16.90;99.90
20759;DHT22;10539;53.686;9.158;2023-08-06T00:39:09;16.90;99.90
20759;DHT22;10539;53.686;9.158;2023-08-06T00:41:34;16.90;99.90
20759;DHT22;10539;53.686;9.158;2023-08-06T00:44:00;17.00;99.90
20759;DHT22;10539;53.686;9.158;2023-08-06T00:46:26;17.00;99.90
20759;DHT22;10539;53.686;9.158;2023-08-06T00:48:52;17.00;99.90
20759;DHT22;10539;53.686;9.158;2023-08-06T00:51:19;17.00;99.90
20759;DHT22;10539;53.686;9.158;2023-08-06T00:53:46;17.00;99.90
20759;DHT22;10539;53.686;9.158;2023-08-06T00:56:13;17.00;99.90
20759;DHT22;10539;53.686;9.158;2023-08-06T00:58:39;17.00;99.90
20759;DHT22;10539;53.686;9.158;2023-08-06T01:01:05;16.90;99.90
20759;DHT22;10539;53.686;9.158;2023-08-06T01:03:31;16.80;99.90
20759;DHT22;10539;53.686;9.158;2023-08-06T01:05:56;16.80;99.90
20759;DHT22;10539;53.686;9.158;2023-08-06T01:08:49;16.70;99.90
20759;DHT22;10539;53.686;9.158;2023-08-06T01:14:33;16.70;99.90
20759;DHT22;10539;53.686;9.158;2023-08-06T01:17:01;16.80;99.90
20759;DHT22;10539;53.686;9.158;2023-08-06T01:19:28;16.70;99.90
20759;DHT22;10539;53.686;9.158;2023-08-06T01:21:54;16.80;99.90
20759;DHT22;10539;53.686;9.158;2023-08-06T01:24:19;16.80;99.90
20759;DHT22;10539;53.686;9.158;2023-08-06T01:26:51;16.80;99.90
20759;DHT22;10539;53.686;9.158;2023-08-06T01:29:41;16.70;99.90
20759;DHT22;10539;53.686;9.158;2023-08-06T01:32:14;16.70;99.90
20759;DHT22;10539;53.686;9.158;2023-08-06T01:34:43;16.70;99.90
20759;DHT22;10539;53.686;9.158;2023-08-06T01:37:11;16.70;99.90
20759;DHT22;10539;53.686;9.158;2023-08-06T01:39:37;16.70;99.90
20759;DHT22;10539;53.686;9.158;2023-08-06T01:42:02;16.80;99.90
20759;DHT22;10539;53.686;9.158;2023-08-06T01:44:28;16.90;99.90
20759;DHT22;10539;53.686;9.158;2023-08-06T01:46:54;16.90;99.90
20759;DHT22;10539;53.686;9.158;2023-08-06T01:49:20;16.90;99.90
20759;DHT22;10539;53.686;9.158;2023-08-06T01:51:46;16.90;99.90
20759;DHT22;10539;53.686;9.158;2023-08-06T01:54:11;16.90;99.90
20759;DHT22;10539;53.686;9.158;2023-08-06T01:56:37;16.90;99.90
20759;DHT22;10539;53.686;9.158;2023-08-06T01:59:03;16.90;99.90
20759;DHT22;10539;53.686;9.158;2023-08-06T02:01:28;16.90;99.90
20759;DHT22;10539;53.686;9.158;2023-08-06T02:03:54;16.90;99.90
20759;DHT22;10539;53.686;9.158;2023-08-06T02:06:20;16.90;99.90
20759;DHT22;10539;53.686;9.158;2023-08-06T02:08:45;16.80;99.90
20759;DHT22;10539;53.686;9.158;2023-08-06T02:11:11;16.70;99.90
20759;DHT22;10539;53.686;9.158;2023-08-06T02:13:37;16.70;99.90
20759;DHT22;10539;53.686;9.158;2023-08-06T02:16:03;16.70;99.90
20759;DHT22;10539;53.686;9.158;2023-08-06T02:18:28;16.70;99.90
20759;DHT22;10539;53.686;9.158;2023-08-06T02:20:58;16.60;99.90
20759;DHT22;10539;53.686;9.158;2023-08-06T02:23:24;16.60;99.90
20759;DHT22;10539;53.686;9.158;2023-08-06T02:26:03;16.60;99.90
20759;DHT22;10539;53.686;9.158;2023-08-06T02:28:30;16.60;99.90
20759;DHT22;10539;53.686;9.158;2023-08-06T02:30:56;16.60;99.90
20759;DHT22;10539;53.686;9.158;2023-08-06T02:33:22;16.60;99.90
20759;DHT22;10539;53.686;9.158;2023-08-06T02:35:47;16.50;99.90
20759;DHT22;10539;53.686;9.158;2023-08-06T02:38:13;16.60;99.90
20759;DHT22;10539;53.686;9.158;2023-08-06T02:40:46;16.60;99.90
20759;DHT22;10539;53.686;9.158;2023-08-06T02:43:12;16.60;99.90
20759;DHT22;10539;53.686;9.158;2023-08-06T02:45:38;16.50;99.90
20759;DHT22;10539;53.686;9.158;2023-08-06T02:48:04;16.50;99.90
20759;DHT22;10539;53.686;9.158;2023-08-06T02:50:30;16.40;99.90
20759;DHT22;10539;53.686;9.158;2023-08-06T02:52:55;16.50;99.90
20759;DHT22;10539;53.686;9.158;2023-08-06T02:55:21;16.50;99.90
20759;DHT22;10539;53.686;9.158;2023-08-06T02:57:47;16.50;99.90
20759;DHT22;10539;53.686;9.158;2023-08-06T03:00:13;16.60;99.90
20759;DHT22;10539;53.686;9.158;2023-08-06T03:02:38;16.70;99.90
20759;DHT22;10539;53.686;9.158;2023-08-06T03:05:04;16.70;99.90
20759;DHT22;10539;53.686;9.158;2023-08-06T03:07:32;16.70;99.90
20759;DHT22;10539;53.686;9.158;2023-08-06T03:09:59;16.80;99.90
20759;DHT22;10539;53.686;9.158;2023-08-06T03:12:29;16.80;99.90
20759;DHT22;10539;53.686;9.158;2023-08-06T03:14:54;16.80;99.90
20759;DHT22;10539;53.686;9.158;2023-08-06T03:17:20;16.80;99.90
20759;DHT22;10539;53.686;9.158;2023-08-06T03:19:46;16.80;99.90
20759;DHT22;10539;53.686;9.158;2023-08-06T03:22:11;16.80;99.90
20759;DHT22;10539;53.686;9.158;2023-08-06T03:24:37;16.70;99.90
20759;DHT22;10539;53.686;9.158;2023-08-06T03:27:02;16.70;99.90
20759;DHT22;10539;53.686;9.158;2023-08-06T03:29:28;16.70;99.90
20759;DHT22;10539;53.686;9.158;2023-08-06T03:31:54;16.70;99.90
20759;DHT22;10539;53.686;9.158;2023-08-06T03:34:20;16.80;99.90
20759;DHT22;10539;53.686;9.158;2023-08-06T03:36:46;16.80;99.90
20759;DHT22;10539;53.686;9.158;2023-08-06T03:39:12;16.80;99.90
20759;DHT22;10539;53.686;9.158;2023-08-06T03:41:41;16.90;99.90
20759;DHT22;10539;53.686;9.158;2023-08-06T03:44:07;16.90;99.90
20759;DHT22;10539;53.686;9.158;2023-08-06T03:46:32;16.80;99.90
20759;DHT22;10539;53.686;9.158;2023-08-06T03:49:00;16.80;99.90
20759;DHT22;10539;53.686;9.158;2023-08-06T03:51:26;16.70;99.90
20759;DHT22;10539;53.686;9.158;2023-08-06T03:53:52;16.70;99.90
20759;DHT22;10539;53.686;9.158;2023-08-06T03:56:17;16.70;99.90
20759;DHT22;10539;53.686;9.158;2023-08-06T03:58:43;16.70;99.90
20759;DHT22;10539;53.686;9.158;2023-08-06T04:01:09;16.70;99.90
20759;DHT22;10539;53.686;9.158;2023-08-06T04:03:35;16.70;99.90
20759;DHT22;10539;53.686;9.158;2023-08-06T04:06:03;16.80;99.90
20759;DHT22;10539;53.686;9.158;2023-08-06T04:08:28;16.80;99.90
20759;DHT22;10539;53.686;9.158;2023-08-06T04:10:54;16.70;99.90
20759;DHT22;10539;53.686;9.158;2023-08-06T04:13:20;16.70;99.90
20759;DHT22;10539;53.686;9.158;2023-08-06T04:15:46;16.70;99.90
20759;DHT22;10539;53.686;9.158;2023-08-06T04:18:13;16.70;99.90
20759;DHT22;10539;53.686;9.158;2023-08-06T04:20:44;16.70;99.90
20759;DHT22;10539;53.686;9.158;2023-08-06T04:23:10;16.70;99.90
20759;DHT22;10539;53.686;9.158;2023-08-06T04:25:36;16.70;99.90
20759;DHT22;10539;53.686;9.158;2023-08-06T04:28:03;16.80;99.90
20759;DHT22;10539;53.686;9.158;2023-08-06T04:30:29;16.80;99.90
20759;DHT22;10539;53.686;9.158;2023-08-06T04:32:57;16.80;99.90
20759;DHT22;10539;53.686;9.158;2023-08-06T04:35:24;16.90;99.90
20759;DHT22;10539;53.686;9.158;2023-08-06T04:37:50;16.90;99.90
20759;DHT22;10539;53.686;9.158;2023-08-06T04:40:16;16.90;99.90
20759;DHT22;10539;53.686;9.158;2023-08-06T04:42:41;16.90;99.90
20759;DHT22;10539;53.686;9.158;2023-08-06T04:45:07;16.90;99.90
20759;DHT22;10539;53.686;9.158;2023-08-06T04:47:33;17.00;99.90
20759;DHT22;10539;53.686;9.158;2023-08-06T04:49:59;17.00;99.90
20759;DHT22;10539;53.686;9.158;2023-08-06T04:52:25;16.90;99.90
20759;DHT22;10539;53.686;9.158;2023-08-06T04:54:54;16.90;99.90
20759;DHT22;10539;53.686;9.158;2023-08-06T04:57:26;16.80;99.90
20759;DHT22;10539;53.686;9.158;2023-08-06T04:59:52;16.80;99.90
20759;DHT22;10539;53.686;9.158;2023-08-06T05:02:18;16.80;99.90
20759;DHT22;10539;53.686;9.158;2023-08-06T05:04:44;16.90;99.90
20759;DHT22;10539;53.686;9.158;2023-08-06T05:07:11;16.90;99.90
20759;DHT22;10539;53.686;9.158;2023-08-06T05:09:37;16.90;99.90
20759;DHT22;10539;53.686;9.158;2023-08-06T05:12:04;16.90;99.90
20759;DHT22;10539;53.686;9.158;2023-08-06T05:14:30;16.90;99.90
20759;DHT22;10539;53.686;9.158;2023-08-06T05:17:01;16.90;99.90
20759;DHT22;10539;53.686;9.158;2023-08-06T05:19:31;16.90;99.90
20759;DHT22;10539;53.686;9.158;2023-08-06T05:21:57;16.90;99.90
20759;DHT22;10539;53.686;9.158;2023-08-06T05:24:23;16.90;99.90
20759;DHT22;10539;53.686;9.158;2023-08-06T05:26:50;17.00;99.90
20759;DHT22;10539;53.686;9.158;2023-08-06T05:29:16;17.10;99.90
20759;DHT22;10539;53.686;9.158;2023-08-06T05:31:43;17.20;99.90
20759;DHT22;10539;53.686;9.158;2023-08-06T05:34:09;17.20;99.90
20759;DHT22;10539;53.686;9.158;2023-08-06T05:36:35;17.20;99.90
20759;DHT22;10539;53.686;9.158;2023-08-06T05:39:01;17.20;99.90
20759;DHT22;10539;53.686;9.158;2023-08-06T05:41:27;17.30;99.90
20759;DHT22;10539;53.686;9.158;2023-08-06T05:43:53;17.30;99.90
20759;DHT22;10539;53.686;9.158;2023-08-06T05:46:18;17.20;99.90
20759;DHT22;10539;53.686;9.158;2023-08-06T05:48:44;17.20;99.90
20759;DHT22;10539;53.686;9.158;2023-08-06T05:51:10;17.20;99.90
20759;DHT22;10539;53.686;9.158;2023-08-06T05:53:38;17.20;99.90
20759;DHT22;10539;53.686;9.158;2023-08-06T05:56:04;17.20;99.90
20759;DHT22;10539;53.686;9.158;2023-08-06T05:58:29;17.20;99.90
20759;DHT22;10539;53.686;9.158;2023-08-06T06:00:56;17.20;99.90
20759;DHT22;10539;53.686;9.158;2023-08-06T06:03:22;17.20;99.90
20759;DHT22;10539;53.686;9.158;2023-08-06T06:05:48;17.20;99.90
20759;DHT22;10539;53.686;9.158;2023-08-06T06:08:13;17.30;99.90
20759;DHT22;10539;53.686;9.158;2023-08-06T06:10:39;17.30;99.90
20759;DHT22;10539;53.686;9.158;2023-08-06T06:13:05;17.40;99.90
20759;DHT22;10539;53.686;9.158;2023-08-06T06:15:31;17.40;99.90
20759;DHT22;10539;53.686;9.158;2023-08-06T06:17:56;17.40;99.90
20759;DHT22;10539;53.686;9.158;2023-08-06T06:20:22;17.40;99.90
20759;DHT22;10539;53.686;9.158;2023-08-06T06:22:48;17.50;99.90
20759;DHT22;10539;53.686;9.158;2023-08-06T06:25:14;17.50;99.90
20759;DHT22;10539;53.686;9.158;2023-08-06T06:27:39;17.50;99.90
20759;DHT22;10539;53.686;9.158;2023-08-06T06:30:06;17.50;99.90
20759;DHT22;10539;53.686;9.158;2023-08-06T06:32:32;17.60;99.90
20759;DHT22;10539;53.686;9.158;2023-08-06T06:34:59;17.70;99.90
20759;DHT22;10539;53.686;9.158;2023-08-06T06:37:25;17.80;99.90
20759;DHT22;10539;53.686;9.158;2023-08-06T06:39:51;17.90;99.90
20759;DHT22;10539;53.686;9.158;2023-08-06T06:42:17;18.00;99.90
20759;DHT22;10539;53.686;9.158;2023-08-06T06:44:43;18.10;99.90
20759;DHT22;10539;53.686;9.158;2023-08-06T06:47:09;18.20;99.90
20759;DHT22;10539;53.686;9.158;2023-08-06T06:49:34;18.10;99.90
20759;DHT22;10539;53.686;9.158;2023-08-06T06:52:00;18.10;99.90
20759;DHT22;10539;53.686;9.158;2023-08-06T06:54:26;18.10;99.90
20759;DHT22;10539;53.686;9.158;2023-08-06T06:56:51;18.10;99.90
20759;DHT22;10539;53.686;9.158;2023-08-06T06:59:17;18.20;99.90
20759;DHT22;10539;53.686;9.158;2023-08-06T07:01:43;18.20;99.90
20759;DHT22;10539;53.686;9.158;2023-08-06T07:04:09;18.30;99.90
20759;DHT22;10539;53.686;9.158;2023-08-06T07:06:34;18.30;99.90
20759;DHT22;10539;53.686;9.158;2023-08-06T07:09:00;18.40;99.90
20759;DHT22;10539;53.686;9.158;2023-08-06T07:11:26;18.40;99.90
20759;DHT22;10539;53.686;9.158;2023-08-06T07:13:57;18.50;99.90
20759;DHT22;10539;53.686;9.158;2023-08-06T07:16:24;18.50;99.90
20759;DHT22;10539;53.686;9.158;2023-08-06T07:18:51;18.60;99.90
20759;DHT22;10539;53.686;9.158;2023-08-06T07:21:18;18.60;99.90
20759;DHT22;10539;53.686;9.158;2023-08-06T07:23:44;18.70;99.90
20759;DHT22;10539;53.686;9.158;2023-08-06T07:26:17;18.70;99.90
20759;DHT22;10539;53.686;9.158;2023-08-06T07:28:43;18.80;99.90
20759;DHT22;10539;53.686;9.158;2023-08-06T07:31:09;18.80;99.90
20759;DHT22;10539;53.686;9.158;2023-08-06T07:33:35;18.90;99.90
20759;DHT22;10539;53.686;9.158;2023-08-06T07:36:11;19.00;99.90
20759;DHT22;10539;53.686;9.158;2023-08-06T07:38:37;19.10;99.90
20759;DHT22;10539;53.686;9.158;2023-08-06T07:41:03;19.10;99.90
20759;DHT22;10539;53.686;9.158;2023-08-06T07:43:30;19.20;99.90
20759;DHT22;10539;53.686;9.158;2023-08-06T07:45:58;19.20;99.90
20759;DHT22;10539;53.686;9.158;2023-08-06T07:48:25;19.30;99.90
20759;DHT22;10539;53.686;9.158;2023-08-06T07:50:52;19.40;99.90
20759;DHT22;10539;53.686;9.158;2023-08-06T07:53:22;19.40;99.90
20759;DHT22;10539;53.686;9.158;2023-08-06T07:55:50;19.50;99.90
20759;DHT22;10539;53.686;9.158;2023-08-06T07:58:17;19.50;99.90
20759;DHT22;10539;53.686;9.158;2023-08-06T08:00:42;19.50;99.90
20759;DHT22;10539;53.686;9.158;2023-08-06T08:03:14;19.50;99.90
20759;DHT22;10539;53.686;9.158;2023-08-06T08:05:43;19.50;99.90
20759;DHT22;10539;53.686;9.158;2023-08-06T08:08:10;19.60;99.90
20759;DHT22;10539;53.686;9.158;2023-08-06T08:10:42;19.60;99.90
20759;DHT22;10539;53.686;9.158;2023-08-06T08:13:08;19.70;99.90
20759;DHT22;10539;53.686;9.158;2023-08-06T08:15:34;19.80;99.90
20759;DHT22;10539;53.686;9.158;2023-08-06T08:17:59;19.90;99.90
20759;DHT22;10539;53.686;9.158;2023-08-06T08:20:26;20.00;99.90
20759;DHT22;10539;53.686;9.158;2023-08-06T08:22:58;20.10;99.90
20759;DHT22;10539;53.686;9.158;2023-08-06T08:25:24;20.20;99.90
20759;DHT22;10539;53.686;9.158;2023-08-06T08:27:50;20.20;99.90
20759;DHT22;10539;53.686;9.158;2023-08-06T08:30:16;20.30;99.90
20759;DHT22;10539;53.686;9.158;2023-08-06T08:32:41;20.30;99.90
20759;DHT22;10539;53.686;9.158;2023-08-06T08:35:07;20.40;99.90
20759;DHT22;10539;53.686;9.158;2023-08-06T08:37:33;20.50;99.90
20759;DHT22;10539;53.686;9.158;2023-08-06T08:39:59;20.70;99.90
20759;DHT22;10539;53.686;9.158;2023-08-06T08:42:26;20.90;99.90
20759;DHT22;10539;53.686;9.158;2023-08-06T08:44:53;20.90;99.90
20759;DHT22;10539;53.686;9.158;2023-08-06T08:47:20;20.90;99.90
20759;DHT22;10539;53.686;9.158;2023-08-06T08:49:47;20.90;99.90
20759;DHT22;10539;53.686;9.158;2023-08-06T08:52:15;21.00;99.90
20759;DHT22;10539;53.686;9.158;2023-08-06T08:54:43;21.00;99.90
20759;DHT22;10539;53.686;9.158;2023-08-06T08:57:10;21.00;99.90
20759;DHT22;10539;53.686;9.158;2023-08-06T08:59:35;21.10;99.90
20759;DHT22;10539;53.686;9.158;2023-08-06T09:02:01;21.00;99.90
20759;DHT22;10539;53.686;9.158;2023-08-06T09:04:29;20.90;99.90
20759;DHT22;10539;53.686;9.158;2023-08-06T09:06:59;20.80;99.90
20759;DHT22;10539;53.686;9.158;2023-08-06T09:09:26;20.80;99.90
20759;DHT22;10539;53.686;9.158;2023-08-06T09:11:52;20.80;99.90
20759;DHT22;10539;53.686;9.158;2023-08-06T09:14:19;20.90;99.90
20759;DHT22;10539;53.686;9.158;2023-08-06T09:16:44;20.90;99.90
20759;DHT22;10539;53.686;9.158;2023-08-06T09:19:12;20.90;99.90
20759;DHT22;10539;53.686;9.158;2023-08-06T09:21:42;21.10;99.90
20759;DHT22;10539;53.686;9.158;2023-08-06T09:24:14;21.10;99.90
20759;DHT22;10539;53.686;9.158;2023-08-06T09:26:40;21.10;99.90
20759;DHT22;10539;53.686;9.158;2023-08-06T09:29:08;21.20;99.90
20759;DHT22;10539;53.686;9.158;2023-08-06T09:31:53;21.20;99.90
20759;DHT22;10539;53.686;9.158;2023-08-06T09:34:22;21.10;99.90
20759;DHT22;10539;53.686;9.158;2023-08-06T09:36:50;21.00;99.90
20759;DHT22;10539;53.686;9.158;2023-08-06T09:39:21;20.90;99.90
20759;DHT22;10539;53.686;9.158;2023-08-06T09:41:47;21.00;99.90
20759;DHT22;10539;53.686;9.158;2023-08-06T09:44:20;21.00;99.90
20759;DHT22;10539;53.686;9.158;2023-08-06T09:46:51;21.00;99.90
20759;DHT22;10539;53.686;9.158;2023-08-06T09:49:41;21.00;99.90
20759;DHT22;10539;53.686;9.158;2023-08-06T09:52:14;21.00;99.90
20759;DHT22;10539;53.686;9.158;2023-08-06T09:54:43;21.10;99.90
20759;DHT22;10539;53.686;9.158;2023-08-06T09:57:09;21.20;99.90
20759;DHT22;10539;53.686;9.158;2023-08-06T09:59:37;21.30;99.90
20759;DHT22;10539;53.686;9.158;2023-08-06T10:02:11;21.30;99.90
20759;DHT22;10539;53.686;9.158;2023-08-06T10:04:37;21.40;99.90
20759;DHT22;10539;53.686;9.158;2023-08-06T10:07:04;21.40;99.90
20759;DHT22;10539;53.686;9.158;2023-08-06T10:09:30;21.50;99.90
20759;DHT22;10539;53.686;9.158;2023-08-06T10:11:56;21.50;99.90
20759;DHT22;10539;53.686;9.158;2023-08-06T10:14:26;21.60;99.90
20759;DHT22;10539;53.686;9.158;2023-08-06T10:16:54;21.60;99.90
20759;DHT22;10539;53.686;9.158;2023-08-06T10:19:23;21.50;99.90
20759;DHT22;10539;53.686;9.158;2023-08-06T10:22:10;21.40;99.90
20759;DHT22;10539;53.686;9.158;2023-08-06T10:27:56;21.20;99.90
20759;DHT22;10539;53.686;9.158;2023-08-06T10:30:32;21.10;99.90
20759;DHT22;10539;53.686;9.158;2023-08-06T10:33:02;21.10;99.90
20759;DHT22;10539;53.686;9.158;2023-08-06T10:35:48;21.10;99.90
20759;DHT22;10539;53.686;9.158;2023-08-06T10:38:20;21.10;99.90
20759;DHT22;10539;53.686;9.158;2023-08-06T10:43:35;21.00;99.90
20759;DHT22;10539;53.686;9.158;2023-08-06T10:46:02;21.00;99.90
20759;DHT22;10539;53.686;9.158;2023-08-06T10:48:36;20.90;99.90
20759;DHT22;10539;53.686;9.158;2023-08-06T10:51:03;20.90;99.90
20759;DHT22;10539;53.686;9.158;2023-08-06T10:53:30;20.90;99.90
20759;DHT22;10539;53.686;9.158;2023-08-06T10:55:56;21.00;99.90
20759;DHT22;10539;53.686;9.158;2023-08-06T10:58:21;21.00;99.90
20759;DHT22;10539;53.686;9.158;2023-08-06T11:00:47;21.00;99.90
20759;DHT22;10539;53.686;9.158;2023-08-06T11:03:14;21.10;99.90
20759;DHT22;10539;53.686;9.158;2023-08-06T11:05:40;21.10;99.90
20759;DHT22;10539;53.686;9.158;2023-08-06T11:08:05;21.20;99.90
20759;DHT22;10539;53.686;9.158;2023-08-06T11:10:33;21.30;99.90
20759;DHT22;10539;53.686;9.158;2023-08-06T11:13:04;21.30;99.90
20759;DHT22;10539;53.686;9.158;2023-08-06T11:15:30;21.40;99.90
20759;DHT22;10539;53.686;9.158;2023-08-06T11:17:56;21.40;99.90
20759;DHT22;10539;53.686;9.158;2023-08-06T11:20:23;21.30;99.90
20759;DHT22;10539;53.686;9.158;2023-08-06T11:22:50;21.30;99.90
20759;DHT22;10539;53.686;9.158;2023-08-06T11:25:15;21.30;99.90
20759;DHT22;10539;53.686;9.158;2023-08-06T11:27:41;21.40;99.90
20759;DHT22;10539;53.686;9.158;2023-08-06T11:30:07;21.40;99.90
20759;DHT22;10539;53.686;9.158;2023-08-06T11:32:45;21.60;99.90
20759;DHT22;10539;53.686;9.158;2023-08-06T11:35:12;21.70;99.90
20759;DHT22;10539;53.686;9.158;2023-08-06T11:37:40;21.80;99.90
20759;DHT22;10539;53.686;9.158;2023-08-06T11:40:09;21.80;99.90
20759;DHT22;10539;53.686;9.158;2023-08-06T11:42:36;21.90;99.90
20759;DHT22;10539;53.686;9.158;2023-08-06T11:45:03;21.90;99.90
20759;DHT22;10539;53.686;9.158;2023-08-06T11:47:30;22.10;99.90
20759;DHT22;10539;53.686;9.158;2023-08-06T11:49:56;22.30;99.90
20759;DHT22;10539;53.686;9.158;2023-08-06T11:52:22;22.30;99.90
20759;DHT22;10539;53.686;9.158;2023-08-06T11:55:08;22.30;99.90
20759;DHT22;10539;53.686;9.158;2023-08-06T11:57:38;22.40;99.90
20759;DHT22;10539;53.686;9.158;2023-08-06T12:00:10;22.40;99.90
20759;DHT22;10539;53.686;9.158;2023-08-06T12:02:38;22.50;99.90
20759;DHT22;10539;53.686;9.158;2023-08-06T12:07:38;22.70;99.90
20759;DHT22;10539;53.686;9.158;2023-08-06T12:10:04;22.60;99.90
20759;DHT22;10539;53.686;9.158;2023-08-06T12:12:30;22.50;99.90
20759;DHT22;10539;53.686;9.158;2023-08-06T12:14:56;22.40;99.90
20759;DHT22;10539;53.686;9.158;2023-08-06T12:17:25;22.20;99.90
20759;DHT22;10539;53.686;9.158;2023-08-06T12:19:51;22.10;99.90
20759;DHT22;10539;53.686;9.158;2023-08-06T12:22:17;22.20;99.90
20759;DHT22;10539;53.686;9.158;2023-08-06T12:24:44;22.30;99.90
20759;DHT22;10539;53.686;9.158;2023-08-06T12:27:10;22.40;99.90
20759;DHT22;10539;53.686;9.158;2023-08-06T12:29:40;22.40;99.90
20759;DHT22;10539;53.686;9.158;2023-08-06T12:32:06;22.30;99.90
20759;DHT22;10539;53.686;9.158;2023-08-06T12:34:32;22.20;99.90
20759;DHT22;10539;53.686;9.158;2023-08-06T12:36:58;22.20;99.90
20759;DHT22;10539;53.686;9.158;2023-08-06T12:39:23;22.20;99.90
20759;DHT22;10539;53.686;9.158;2023-08-06T12:41:49;22.30;99.90
20759;DHT22;10539;53.686;9.158;2023-08-06T12:44:15;22.30;99.90
20759;DHT22;10539;53.686;9.158;2023-08-06T12:46:41;22.10;99.90
20759;DHT22;10539;53.686;9.158;2023-08-06T12:49:06;22.20;99.90
20759;DHT22;10539;53.686;9.158;2023-08-06T12:51:32;22.30;99.90
20759;DHT22;10539;53.686;9.158;2023-08-06T12:54:00;22.40;99.90
20759;DHT22;10539;53.686;9.158;2023-08-06T12:56:26;22.40;99.90
20759;DHT22;10539;53.686;9.158;2023-08-06T12:58:52;22.30;99.90
20759;DHT22;10539;53.686;9.158;2023-08-06T13:01:17;22.10;99.90
20759;DHT22;10539;53.686;9.158;2023-08-06T13:03:43;21.90;99.90
20759;DHT22;10539;53.686;9.158;2023-08-06T13:06:09;21.70;99.90
20759;DHT22;10539;53.686;9.158;2023-08-06T13:08:35;21.70;99.90
20759;DHT22;10539;53.686;9.158;2023-08-06T13:11:01;21.60;99.90
20759;DHT22;10539;53.686;9.158;2023-08-06T13:13:27;21.60;99.90
20759;DHT22;10539;53.686;9.158;2023-08-06T13:15:53;21.60;99.90
20759;DHT22;10539;53.686;9.158;2023-08-06T13:18:18;21.50;99.90
20759;DHT22;10539;53.686;9.158;2023-08-06T13:20:44;21.40;99.90
20759;DHT22;10539;53.686;9.158;2023-08-06T13:23:12;21.30;99.90
20759;DHT22;10539;53.686;9.158;2023-08-06T13:25:41;21.30;99.90
20759;DHT22;10539;53.686;9.158;2023-08-06T13:28:06;21.20;99.90
20759;DHT22;10539;53.686;9.158;2023-08-06T13:30:32;21.10;99.90
20759;DHT22;10539;53.686;9.158;2023-08-06T13:33:00;21.00;99.90
20759;DHT22;10539;53.686;9.158;2023-08-06T13:35:26;20.90;99.90
20759;DHT22;10539;53.686;9.158;2023-08-06T13:37:51;20.90;99.90
20759;DHT22;10539;53.686;9.158;2023-08-06T13:40:17;20.80;99.90
20759;DHT22;10539;53.686;9.158;2023-08-06T13:42:43;20.60;99.90
20759;DHT22;10539;53.686;9.158;2023-08-06T13:45:09;20.50;99.90
20759;DHT22;10539;53.686;9.158;2023-08-06T13:47:35;20.40;99.90
20759;DHT22;10539;53.686;9.158;2023-08-06T13:50:01;20.40;99.90
20759;DHT22;10539;53.686;9.158;2023-08-06T13:52:27;20.50;99.90
20759;DHT22;10539;53.686;9.158;2023-08-06T13:54:52;20.60;99.90
20759;DHT22;10539;53.686;9.158;2023-08-06T13:57:18;20.70;99.90
20759;DHT22;10539;53.686;9.158;2023-08-06T13:59:44;20.60;99.90
20759;DHT22;10539;53.686;9.158;2023-08-06T14:02:10;20.50;99.90
20759;DHT22;10539;53.686;9.158;2023-08-06T14:04:36;20.40;99.90
20759;DHT22;10539;53.686;9.158;2023-08-06T14:07:05;20.30;99.90
20759;DHT22;10539;53.686;9.158;2023-08-06T14:09:31;20.30;99.90
20759;DHT22;10539;53.686;9.158;2023-08-06T14:11:57;20.30;99.90
20759;DHT22;10539;53.686;9.158;2023-08-06T14:14:22;20.30;99.90
20759;DHT22;10539;53.686;9.158;2023-08-06T14:16:52;20.30;99.90
20759;DHT22;10539;53.686;9.158;2023-08-06T14:19:18;20.30;99.90
20759;DHT22;10539;53.686;9.158;2023-08-06T14:21:44;20.20;99.90
20759;DHT22;10539;53.686;9.158;2023-08-06T14:24:09;20.20;99.90
20759;DHT22;10539;53.686;9.158;2023-08-06T14:26:35;20.20;99.90
20759;DHT22;10539;53.686;9.158;2023-08-06T14:29:01;20.20;99.90
20759;DHT22;10539;53.686;9.158;2023-08-06T14:31:27;20.20;99.90
20759;DHT22;10539;53.686;9.158;2023-08-06T14:33:53;20.20;99.90
20759;DHT22;10539;53.686;9.158;2023-08-06T14:36:19;20.30;99.90
20759;DHT22;10539;53.686;9.158;2023-08-06T14:38:45;20.30;99.90
20759;DHT22;10539;53.686;9.158;2023-08-06T14:41:10;20.40;99.90
20759;DHT22;10539;53.686;9.158;2023-08-06T14:43:36;20.50;99.90
20759;DHT22;10539;53.686;9.158;2023-08-06T14:46:02;20.50;99.90
20759;DHT22;10539;53.686;9.158;2023-08-06T14:48:30;20.50;99.90
20759;DHT22;10539;53.686;9.158;2023-08-06T14:50:56;20.50;99.90
20759;DHT22;10539;53.686;9.158;2023-08-06T14:53:22;20.50;99.90
20759;DHT22;10539;53.686;9.158;2023-08-06T14:55:48;20.40;99.90
20759;DHT22;10539;53.686;9.158;2023-08-06T14:58:13;20.40;99.90
20759;DHT22;10539;53.686;9.158;2023-08-06T15:00:39;20.50;99.90
20759;DHT22;10539;53.686;9.158;2023-08-06T15:03:05;20.60;99.90
20759;DHT22;10539;53.686;9.158;2023-08-06T15:05:31;20.60;99.90
20759;DHT22;10539;53.686;9.158;2023-08-06T15:07:57;20.50;99.90
20759;DHT22;10539;53.686;9.158;2023-08-06T15:10:23;20.50;99.90
20759;DHT22;10539;53.686;9.158;2023-08-06T15:12:49;20.50;99.90
20759;DHT22;10539;53.686;9.158;2023-08-06T15:15:15;20.60;99.90
20759;DHT22;10539;53.686;9.158;2023-08-06T15:17:41;20.50;99.90
20759;DHT22;10539;53.686;9.158;2023-08-06T15:20:07;20.50;99.90
20759;DHT22;10539;53.686;9.158;2023-08-06T15:22:33;20.30;99.90
20759;DHT22;10539;53.686;9.158;2023-08-06T15:25:00;20.30;99.90
20759;DHT22;10539;53.686;9.158;2023-08-06T15:27:26;20.30;99.90
20759;DHT22;10539;53.686;9.158;2023-08-06T15:29:52;20.30;99.90
20759;DHT22;10539;53.686;9.158;2023-08-06T15:32:18;20.30;99.90
20759;DHT22;10539;53.686;9.158;2023-08-06T15:34:44;20.50;99.90
20759;DHT22;10539;53.686;9.158;2023-08-06T15:37:10;20.60;99.90
20759;DHT22;10539;53.686;9.158;2023-08-06T15:39:36;20.80;99.90